Time;durP1;ratioP1;P1;durP2;ratioP2;P2;SDS_P1;SDS_P2;PMS_P1;PMS_P2;Temp;Humidity;BMP_temperature;BMP_pressure;BME280_temperature;BME280_humidity;BME280_pressure;Samples;Min_cycle;Max_cycle;Signal;HPM_P1;HPM_P2
2022/12/23 00:01:45;;;;;;;0.90;0.90;;;17.80;64.30;;;;;;5081177;27;43585;-74
2022/12/23 00:04:15;;;;;;;0.80;0.80;;;17.80;64.30;;;;;;5084256;28;44049;-76
2022/12/23 00:06:43;;;;;;;0.70;0.70;;;17.80;64.40;;;;;;5066607;28;44140;-77
2022/12/23 00:09:11;;;;;;;0.77;0.77;;;17.80;64.40;;;;;;5075929;28;43959;-73
2022/12/23 00:15:03;;;;;;;1.00;0.97;;;17.70;64.50;;;;;;5086766;28;43526;-75
2022/12/23 00:17:12;;;;;;;0.80;0.80;;;17.90;64.20;;;;;;5071474;28;45772;-75
2022/12/23 00:19:57;;;;;;;0.90;0.90;;;18.00;63.90;;;;;;5083225;28;43418;-76
2022/12/23 00:25:07;;;;;;;0.70;0.70;;;17.90;63.80;;;;;;5085610;28;43957;-76
2022/12/23 00:27:35;;;;;;;0.70;0.70;;;17.90;64.00;;;;;;5066378;28;45891;-74
2022/12/23 00:30:06;;;;;;;0.80;0.80;;;17.90;64.00;;;;;;5065630;28;44487;-74
2022/12/23 00:32:34;;;;;;;0.83;0.83;;;17.90;64.00;;;;;;5065937;28;43502;-76
2022/12/23 00:35:03;;;;;;;0.80;0.80;;;17.90;64.00;;;;;;5088457;28;43469;-76
2022/12/23 00:37:31;;;;;;;0.60;0.60;;;17.90;64.10;;;;;;5067863;28;46514;-76
2022/12/23 00:42:54;;;;;;;0.80;0.80;;;17.80;64.40;;;;;;5080311;28;43824;-76
2022/12/23 00:45:22;;;;;;;0.67;0.67;;;17.80;64.30;;;;;;5084038;28;43487;-75
2022/12/23 00:50:37;;;;;;;0.60;0.60;;;17.80;64.40;;;;;;5078304;28;43538;-75
2022/12/23 00:53:06;;;;;;;0.70;0.70;;;17.80;64.40;;;;;;5068215;28;43546;-77
2022/12/23 00:55:33;;;;;;;0.70;0.70;;;17.80;64.50;;;;;;5082974;28;43893;-75
2022/12/23 00:58:01;;;;;;;0.70;0.70;;;17.70;64.60;;;;;;5086015;28;43829;-75
2022/12/23 01:06:02;;;;;;;0.70;0.70;;;17.80;64.50;;;;;;5079263;28;43429;-76
2022/12/23 01:08:30;;;;;;;0.70;0.70;;;17.70;64.40;;;;;;5088253;28;43876;-75
2022/12/23 01:11:01;;;;;;;0.80;0.80;;;17.70;64.50;;;;;;5084077;28;45367;-75
2022/12/23 01:13:29;;;;;;;0.60;0.60;;;17.70;64.70;;;;;;5080945;27;43516;-77
2022/12/23 01:16:00;;;;;;;0.70;0.70;;;17.80;64.50;;;;;;5067441;28;44126;-76
2022/12/23 01:18:28;;;;;;;0.60;0.60;;;17.90;64.20;;;;;;5071290;28;43915;-76
2022/12/23 01:20:56;;;;;;;0.70;0.70;;;18.00;63.90;;;;;;5058508;28;44718;-76
2022/12/23 01:23:25;;;;;;;0.53;0.53;;;18.00;63.70;;;;;;5081128;28;43414;-73
2022/12/23 01:25:57;;;;;;;0.60;0.60;;;18.00;63.80;;;;;;5078764;28;43898;-77
2022/12/23 01:28:25;;;;;;;0.50;0.50;;;17.90;63.90;;;;;;5076799;28;43967;-75
2022/12/23 01:30:53;;;;;;;0.60;0.60;;;17.90;63.90;;;;;;5080784;28;45274;-76
2022/12/23 01:33:21;;;;;;;0.67;0.67;;;17.90;63.90;;;;;;5078741;28;43458;-77
2022/12/23 01:35:49;;;;;;;0.50;0.50;;;17.90;64.00;;;;;;5064841;28;44701;-77
2022/12/23 01:38:17;;;;;;;0.60;0.60;;;17.90;64.10;;;;;;5078618;28;43923;-76
2022/12/23 01:40:46;;;;;;;0.60;0.60;;;17.80;64.20;;;;;;5082888;28;44201;-77
2022/12/23 01:43:14;;;;;;;0.70;0.70;;;17.80;64.40;;;;;;5082578;28;43478;-74
2022/12/23 01:45:42;;;;;;;0.73;0.73;;;17.80;64.30;;;;;;5081249;28;43438;-76
2022/12/23 01:48:11;;;;;;;0.50;0.50;;;17.80;64.30;;;;;;5080818;28;44060;-75
2022/12/23 01:50:40;;;;;;;0.53;0.53;;;17.80;64.30;;;;;;5080277;28;43481;-76
2022/12/23 01:53:09;;;;;;;0.60;0.60;;;17.80;64.40;;;;;;5065473;28;43495;-76
2022/12/23 01:55:39;;;;;;;0.60;0.60;;;17.80;64.50;;;;;;5060717;28;45470;-74
2022/12/23 01:58:10;;;;;;;0.70;0.70;;;17.70;64.60;;;;;;5072181;28;43896;-74
2022/12/23 02:03:42;;;;;;;0.60;0.60;;;17.90;64.20;;;;;;5082248;28;43361;-75
2022/12/23 02:09:17;;;;;;;0.50;0.50;;;17.90;63.80;;;;;;5084701;28;44193;-77
2022/12/23 02:12:05;;;;;;;0.60;0.60;;;17.90;63.90;;;;;;5080391;28;43436;-76
2022/12/23 02:17:32;;;;;;;0.57;0.57;;;17.90;64.10;;;;;;5059597;28;43496;-76
2022/12/23 02:20:28;;;;;;;0.53;0.53;;;17.90;64.10;;;;;;5078503;28;43942;-77
2022/12/23 02:23:07;;;;;;;0.60;0.60;;;17.90;64.20;;;;;;5074603;28;43465;-76
2022/12/23 02:25:42;;;;;;;0.70;0.70;;;17.80;64.30;;;;;;5080543;27;43396;-76
2022/12/23 02:28:21;;;;;;;0.60;0.60;;;17.80;64.50;;;;;;5079540;28;43655;-77
2022/12/23 02:30:52;;;;;;;0.50;0.50;;;17.80;65.10;;;;;;5077870;28;43865;-75
2022/12/23 02:33:31;;;;;;;0.60;0.60;;;17.80;64.40;;;;;;5076588;28;43413;-75
2022/12/23 02:36:07;;;;;;;0.40;0.40;;;17.80;64.50;;;;;;5079623;28;43473;-76
2022/12/23 02:38:39;;;;;;;0.50;0.50;;;17.80;65.20;;;;;;5062932;28;43623;-77
2022/12/23 02:41:09;;;;;;;0.60;0.60;;;17.70;64.50;;;;;;5062177;28;45782;-76
2022/12/23 02:43:41;;;;;;;0.50;0.50;;;17.70;64.60;;;;;;5085045;28;44234;-76
2022/12/23 02:46:12;;;;;;;0.50;0.50;;;17.80;64.50;;;;;;5080157;28;43458;-75
2022/12/23 02:48:43;;;;;;;0.50;0.50;;;17.90;64.20;;;;;;5063894;28;43505;-75
2022/12/23 02:51:10;;;;;;;0.60;0.60;;;17.90;64.00;;;;;;5075997;28;43772;-76
2022/12/23 02:53:41;;;;;;;0.50;0.50;;;17.90;64.10;;;;;;5081712;27;43546;-73
2022/12/23 02:56:09;;;;;;;0.40;0.40;;;17.90;64.10;;;;;;5076369;28;44292;-73
2022/12/23 02:58:40;;;;;;;0.57;0.57;;;17.90;64.40;;;;;;5075529;28;43474;-75
2022/12/23 03:01:08;;;;;;;0.40;0.40;;;17.90;64.20;;;;;;5083737;28;43814;-77
2022/12/23 03:03:37;;;;;;;0.53;0.53;;;17.90;64.20;;;;;;5079184;28;43474;-76
2022/12/23 03:06:06;;;;;;;0.67;0.67;;;17.80;64.20;;;;;;5075541;28;43561;-77
2022/12/23 03:08:38;;;;;;;0.40;0.40;;;17.80;64.40;;;;;;5076472;28;43587;-74
2022/12/23 03:11:06;;;;;;;0.50;0.50;;;17.80;64.50;;;;;;5064881;28;45870;-75
2022/12/23 03:13:42;;;;;;;0.60;0.60;;;17.80;64.70;;;;;;5058494;28;44686;-75
2022/12/23 03:16:13;;;;;;;0.60;0.60;;;17.80;64.50;;;;;;5077336;28;43497;-77
2022/12/23 03:18:46;;;;;;;0.47;0.47;;;17.80;64.50;;;;;;5063048;28;43555;-76
2022/12/23 03:21:16;;;;;;;0.50;0.50;;;17.80;64.50;;;;;;5080927;28;43897;-76
2022/12/23 03:23:46;;;;;;;0.50;0.50;;;17.80;64.60;;;;;;5074696;28;43692;-76
2022/12/23 03:26:23;;;;;;;0.60;0.60;;;17.70;64.60;;;;;;5061746;28;43557;-74
2022/12/23 03:28:53;;;;;;;0.50;0.50;;;17.70;64.90;;;;;;5066851;28;43951;-76
2022/12/23 03:31:23;;;;;;;0.60;0.60;;;17.80;64.70;;;;;;5060778;28;45273;-77
2022/12/23 03:33:53;;;;;;;0.43;0.43;;;17.90;64.40;;;;;;5080930;28;43490;-76
2022/12/23 03:36:23;;;;;;;0.50;0.50;;;18.00;64.10;;;;;;5079644;28;43443;-73
2022/12/23 03:38:51;;;;;;;0.60;0.60;;;18.00;63.90;;;;;;5077604;28;44225;-76
2022/12/23 03:41:21;;;;;;;0.50;0.50;;;18.00;64.00;;;;;;5059307;28;45811;-76
2022/12/23 03:43:51;;;;;;;0.40;0.40;;;17.90;64.10;;;;;;5074159;28;43464;-76
2022/12/23 03:46:22;;;;;;;0.60;0.60;;;17.90;64.00;;;;;;5078080;28;43489;-75
2022/12/23 03:48:51;;;;;;;0.53;0.53;;;17.90;64.00;;;;;;5078279;28;44018;-77
2022/12/23 03:51:23;;;;;;;0.57;0.57;;;17.90;64.10;;;;;;5076188;28;44243;-76
2022/12/23 03:53:52;;;;;;;0.60;0.60;;;17.90;64.20;;;;;;5079796;28;44007;-77
2022/12/23 03:56:23;;;;;;;0.40;0.40;;;17.80;64.30;;;;;;5060017;28;43683;-72
2022/12/23 03:58:53;;;;;;;0.57;0.57;;;17.80;64.50;;;;;;5074655;28;43960;-76
2022/12/23 04:01:25;;;;;;;0.50;0.50;;;17.80;64.50;;;;;;5083667;28;43917;-77
2022/12/23 04:03:54;;;;;;;0.40;0.40;;;17.80;64.50;;;;;;5075249;28;43391;-75
2022/12/23 04:06:24;;;;;;;0.43;0.43;;;17.80;64.50;;;;;;5078546;28;43508;-75
2022/12/23 04:08:52;;;;;;;0.40;0.40;;;17.80;64.60;;;;;;5080398;28;43450;-77
2022/12/23 04:11:20;;;;;;;0.50;0.50;;;17.80;64.60;;;;;;5060274;28;45675;-75
2022/12/23 04:13:48;;;;;;;0.40;0.40;;;17.70;64.60;;;;;;5062271;28;45159;-75
2022/12/23 04:16:16;;;;;;;0.40;0.40;;;17.80;64.90;;;;;;5078182;28;44746;-76
2022/12/23 04:18:44;;;;;;;0.50;0.50;;;17.80;64.60;;;;;;5077004;28;43591;-76
2022/12/23 04:21:12;;;;;;;0.50;0.50;;;17.90;64.20;;;;;;5080032;28;45106;-77
2022/12/23 04:23:41;;;;;;;0.50;0.50;;;18.00;64.10;;;;;;5064650;28;44651;-77
2022/12/23 04:26:09;;;;;;;0.50;0.50;;;18.00;64.00;;;;;;5083517;28;44072;-77
2022/12/23 04:28:37;;;;;;;0.60;0.60;;;17.90;64.10;;;;;;5077250;28;43867;-74
2022/12/23 04:31:05;;;;;;;0.37;0.37;;;17.90;64.30;;;;;;5081078;28;43918;-75
2022/12/23 04:33:33;;;;;;;0.60;0.60;;;17.90;64.20;;;;;;5082825;28;44015;-75
2022/12/23 04:36:01;;;;;;;0.50;0.50;;;17.90;64.20;;;;;;5080323;28;43516;-77
2022/12/23 04:38:29;;;;;;;0.47;0.47;;;17.90;64.30;;;;;;5078814;28;43508;-75
2022/12/23 04:40:58;;;;;;;0.50;0.50;;;17.80;64.30;;;;;;5060961;28;46054;-75
2022/12/23 04:43:26;;;;;;;0.40;0.40;;;17.80;64.50;;;;;;5061670;28;44587;-74
2022/12/23 04:45:54;;;;;;;0.40;0.40;;;17.80;64.70;;;;;;5078954;28;43514;-75
2022/12/23 04:48:22;;;;;;;0.40;0.40;;;17.80;64.50;;;;;;5078750;28;43483;-77
2022/12/23 04:50:50;;;;;;;0.47;0.47;;;17.80;64.50;;;;;;5078550;28;43988;-77
2022/12/23 04:53:18;;;;;;;0.50;0.50;;;17.80;64.50;;;;;;5055834;28;45210;-74
2022/12/23 04:55:50;;;;;;;0.50;0.50;;;17.80;64.70;;;;;;5063157;28;43497;-74
2022/12/23 04:58:20;;;;;;;0.50;0.50;;;17.80;64.80;;;;;;5064047;28;43550;-76
2022/12/23 05:00:49;;;;;;;0.50;0.50;;;17.70;64.80;;;;;;5083594;28;44033;-77
2022/12/23 05:03:17;;;;;;;0.50;0.50;;;17.80;64.80;;;;;;5082861;28;43467;-76
2022/12/23 05:05:45;;;;;;;0.53;0.53;;;17.90;64.40;;;;;;5062867;28;44174;-77
2022/12/23 05:08:13;;;;;;;0.47;0.47;;;17.90;64.10;;;;;;5061605;28;43462;-74
2022/12/23 05:10:41;;;;;;;0.30;0.30;;;17.90;64.10;;;;;;5078497;28;44770;-77
2022/12/23 05:13:08;;;;;;;0.40;0.40;;;17.90;64.20;;;;;;5080237;28;43565;-76
2022/12/23 05:15:38;;;;;;;0.70;0.70;;;17.90;64.40;;;;;;5085898;28;43568;-76
2022/12/23 05:18:06;;;;;;;0.60;0.60;;;17.90;64.30;;;;;;5080624;28;43469;-76
2022/12/23 05:20:34;;;;;;;0.63;0.63;;;17.90;64.20;;;;;;5055094;28;45988;-75
2022/12/23 05:23:02;;;;;;;0.70;0.70;;;17.90;64.40;;;;;;5077568;28;43836;-75
2022/12/23 05:25:29;;;;;;;0.90;0.90;;;17.90;64.40;;;;;;5085934;28;43461;-76
2022/12/23 05:27:57;;;;;;;1.07;1.07;;;17.80;64.50;;;;;;5066688;28;43568;-75
2022/12/23 05:30:25;;;;;;;1.00;0.90;;;17.80;64.70;;;;;;5078615;28;44364;-76
2022/12/23 05:32:55;;;;;;;2.20;0.90;;;17.80;64.60;;;;;;5081740;28;43465;-75
2022/12/23 05:35:23;;;;;;;1.43;1.20;;;17.80;64.60;;;;;;5078862;28;43906;-76
2022/12/23 05:37:51;;;;;;;1.40;1.30;;;17.80;64.80;;;;;;5062851;28;43582;-75
2022/12/23 05:40:19;;;;;;;1.20;1.10;;;17.80;64.60;;;;;;5081841;28;43895;-76
2022/12/23 05:42:52;;;;;;;1.50;1.40;;;17.80;64.70;;;;;;5080718;28;43530;-75
2022/12/23 05:45:20;;;;;;;1.57;1.47;;;17.80;64.80;;;;;;5074047;28;43466;-77
2022/12/23 05:47:48;;;;;;;1.60;1.50;;;17.80;64.80;;;;;;5081660;28;43454;-77
2022/12/23 05:50:17;;;;;;;1.80;1.70;;;17.90;64.50;;;;;;5086826;28;43729;-76
2022/12/23 05:52:48;;;;;;;1.80;1.70;;;18.00;64.20;;;;;;5080432;28;43534;-76
2022/12/23 05:55:17;;;;;;;1.57;1.50;;;18.00;64.10;;;;;;5072960;28;43501;-76
2022/12/23 05:57:45;;;;;;;2.00;1.63;;;18.00;64.10;;;;;;5081777;27;43897;-73
2022/12/23 06:00:15;;;;;;;2.80;1.73;;;17.90;64.10;;;;;;5074668;28;43618;-77
2022/12/23 06:02:43;;;;;;;1.73;1.57;;;17.90;64.30;;;;;;5080808;28;45334;-77
2022/12/23 06:05:20;;;;;;;1.73;1.57;;;17.90;64.20;;;;;;5078009;28;43466;-71
2022/12/23 06:07:47;;;;;;;1.70;1.60;;;17.90;64.30;;;;;;5057805;28;43519;-77
2022/12/23 06:10:15;;;;;;;1.67;1.57;;;17.90;64.40;;;;;;5077786;28;43949;-77
2022/12/23 06:12:43;;;;;;;1.40;1.40;;;17.90;64.50;;;;;;5080415;28;43947;-74
2022/12/23 06:15:11;;;;;;;1.70;1.50;;;17.80;64.50;;;;;;5065642;28;43483;-77
2022/12/23 06:17:39;;;;;;;1.70;1.60;;;17.80;64.80;;;;;;5077406;28;43545;-72
2022/12/23 06:20:09;;;;;;;1.70;1.60;;;17.80;64.60;;;;;;5064555;28;45669;-77
2022/12/23 06:22:48;;;;;;;1.80;1.70;;;17.80;64.60;;;;;;5065924;28;45056;-74
2022/12/23 06:25:16;;;;;;;1.33;1.33;;;17.80;64.60;;;;;;5076575;28;43453;-76
2022/12/23 06:27:44;;;;;;;1.80;1.70;;;17.80;64.70;;;;;;5079863;28;43499;-77
2022/12/23 06:30:12;;;;;;;2.03;1.80;;;17.80;64.80;;;;;;5084484;28;43891;-76
2022/12/23 06:32:40;;;;;;;2.30;1.93;;;17.80;65.00;;;;;;5076323;28;43538;-76
2022/12/23 06:35:08;;;;;;;1.60;1.50;;;17.80;64.90;;;;;;5074874;28;43513;-74
2022/12/23 06:37:36;;;;;;;2.57;1.73;;;17.90;64.60;;;;;;5070058;28;43629;-76
2022/12/23 06:40:07;;;;;;;1.73;1.63;;;18.00;64.30;;;;;;5079086;28;43936;-74
2022/12/23 06:42:35;;;;;;;1.70;1.60;;;18.00;64.10;;;;;;5072331;28;43430;-74
2022/12/23 06:45:03;;;;;;;1.90;1.77;;;18.00;64.20;;;;;;5074845;28;43425;-76
2022/12/23 06:47:31;;;;;;;1.70;1.60;;;17.90;64.30;;;;;;5081691;28;43585;-74
2022/12/23 06:49:59;;;;;;;1.80;1.70;;;17.90;64.30;;;;;;5063860;28;46376;-77
2022/12/23 06:52:27;;;;;;;1.77;1.67;;;17.90;64.20;;;;;;5079142;28;43493;-76
2022/12/23 06:54:55;;;;;;;1.70;1.60;;;17.90;64.30;;;;;;5064092;28;43830;-73
2022/12/23 06:57:24;;;;;;;1.90;1.80;;;17.90;64.50;;;;;;5077547;28;43510;-76
2022/12/23 06:59:52;;;;;;;1.73;1.63;;;17.80;64.50;;;;;;5061705;28;45717;-76
2022/12/23 07:02:20;;;;;;;2.00;1.90;;;17.80;64.70;;;;;;5080308;28;43496;-76
2022/12/23 07:04:48;;;;;;;1.93;1.80;;;17.80;64.70;;;;;;5067743;28;43609;-76
2022/12/23 07:07:16;;;;;;;1.80;1.70;;;17.80;64.70;;;;;;5084854;28;43528;-73
2022/12/23 07:09:44;;;;;;;2.00;1.90;;;17.80;64.70;;;;;;5077522;28;43915;-76
2022/12/23 07:12:12;;;;;;;1.50;1.40;;;17.80;64.80;;;;;;5080204;28;44703;-77
2022/12/23 07:14:41;;;;;;;1.63;1.53;;;17.80;64.80;;;;;;5084680;28;44735;-76
2022/12/23 07:17:09;;;;;;;1.93;1.50;;;17.80;65.10;;;;;;5054400;28;45017;-77
2022/12/23 07:19:37;;;;;;;1.63;1.63;;;17.80;64.90;;;;;;5062566;28;45740;-74
2022/12/23 07:22:05;;;;;;;1.63;1.53;;;17.80;64.80;;;;;;5063225;28;45111;-75
2022/12/23 07:24:33;;;;;;;1.60;1.50;;;17.80;64.80;;;;;;5062616;28;43462;-76
2022/12/23 07:27:00;;;;;;;1.50;1.50;;;17.80;64.80;;;;;;5076871;28;43498;-76
2022/12/23 07:29:28;;;;;;;1.60;1.60;;;17.80;64.90;;;;;;5076295;28;43982;-76
2022/12/23 07:31:58;;;;;;;1.60;1.50;;;17.80;65.10;;;;;;5084062;28;43980;-77
2022/12/23 07:34:26;;;;;;;2.10;2.00;;;17.80;65.10;;;;;;5078954;28;43470;-75
2022/12/23 07:36:54;;;;;;;1.27;1.27;;;17.90;64.80;;;;;;5059368;28;43606;-75
2022/12/23 07:39:22;;;;;;;1.47;1.47;;;18.00;64.30;;;;;;5077582;28;44042;-76
2022/12/23 07:41:50;;;;;;;1.50;1.40;;;18.10;64.10;;;;;;5055845;28;44384;-77
2022/12/23 07:44:37;;;;;;;1.60;1.50;;;18.10;64.10;;;;;;5076708;28;43701;-77
2022/12/23 07:47:07;;;;;;;1.83;1.73;;;18.00;64.10;;;;;;5061293;28;43507;-75
2022/12/23 07:49:35;;;;;;;1.70;1.60;;;18.00;64.20;;;;;;5064474;28;43955;-75
2022/12/23 07:52:03;;;;;;;1.70;1.60;;;18.00;64.10;;;;;;5076866;28;43548;-77
2022/12/23 07:54:31;;;;;;;1.67;1.57;;;18.00;64.20;;;;;;5066065;28;43439;-77
2022/12/23 07:56:59;;;;;;;1.50;1.50;;;17.90;64.30;;;;;;5079197;28;43577;-76
2022/12/23 07:59:27;;;;;;;1.43;1.43;;;17.90;64.50;;;;;;5078901;28;43749;-76
2022/12/23 08:01:55;;;;;;;1.60;1.50;;;17.90;64.60;;;;;;5054662;28;44742;-75
2022/12/23 08:04:25;;;;;;;1.70;1.60;;;17.80;64.70;;;;;;5085528;27;43502;-76
2022/12/23 08:06:53;;;;;;;1.63;1.63;;;17.90;64.70;;;;;;5081351;28;43456;-76
2022/12/23 08:09:21;;;;;;;1.60;1.60;;;17.80;64.60;;;;;;5086745;28;43660;-76
2022/12/23 08:11:48;;;;;;;1.53;1.50;;;17.80;64.90;;;;;;5086389;28;43440;-76
2022/12/23 08:14:16;;;;;;;1.63;1.57;;;17.80;64.80;;;;;;5080527;28;44172;-76
2022/12/23 08:16:44;;;;;;;1.87;1.77;;;17.80;64.90;;;;;;5065856;28;48071;-76
2022/12/23 08:19:12;;;;;;;1.70;1.60;;;17.80;65.10;;;;;;5080733;28;43845;-76
2022/12/23 08:21:42;;;;;;;1.50;1.50;;;17.80;64.80;;;;;;5067587;27;44504;-74
2022/12/23 08:24:09;;;;;;;1.67;1.57;;;17.90;64.50;;;;;;5085356;28;44131;-75
2022/12/23 08:26:37;;;;;;;1.70;1.60;;;17.90;64.40;;;;;;5078430;28;43542;-74
2022/12/23 08:29:05;;;;;;;1.40;1.40;;;17.90;64.40;;;;;;5083319;28;44056;-75
2022/12/23 08:31:33;;;;;;;1.47;1.47;;;17.90;64.50;;;;;;5077298;28;43588;-74
2022/12/23 08:34:01;;;;;;;1.50;1.50;;;17.90;64.70;;;;;;5080026;28;43544;-76
2022/12/23 08:36:30;;;;;;;1.70;1.60;;;17.90;64.60;;;;;;5068907;28;43613;-75
2022/12/23 08:39:00;;;;;;;1.50;1.50;;;17.90;65.30;;;;;;5070118;28;45992;-76
2022/12/23 08:41:29;;;;;;;1.50;1.50;;;17.90;64.60;;;;;;5082829;28;43984;-75
2022/12/23 08:43:57;;;;;;;1.60;1.60;;;17.80;64.60;;;;;;5083167;28;43549;-77
2022/12/23 08:46:25;;;;;;;1.80;1.70;;;17.80;64.80;;;;;;5080976;28;43605;-72
2022/12/23 08:48:54;;;;;;;1.67;1.57;;;17.80;65.10;;;;;;5085528;28;44025;-77
2022/12/23 08:51:23;;;;;;;1.53;1.53;;;17.80;64.90;;;;;;5080536;28;43454;-76
2022/12/23 08:53:50;;;;;;;1.50;1.50;;;17.90;64.60;;;;;;5081996;28;43409;-71
2022/12/23 08:56:28;;;;;;;1.47;1.37;;;18.00;64.30;;;;;;5066471;28;43454;-76
2022/12/23 08:58:56;;;;;;;1.73;1.63;;;18.00;64.30;;;;;;5080840;28;44172;-74
2022/12/23 09:01:26;;;;;;;1.83;1.73;;;18.00;64.30;;;;;;5061534;28;43505;-76
2022/12/23 09:03:55;;;;;;;1.77;1.67;;;17.90;64.50;;;;;;5066848;28;43436;-73
2022/12/23 09:06:24;;;;;;;1.40;1.40;;;17.90;64.40;;;;;;5066036;28;43527;-77
2022/12/23 09:08:56;;;;;;;1.67;1.57;;;17.90;64.50;;;;;;5083632;28;43602;-76
2022/12/23 09:11:26;;;;;;;1.57;1.50;;;17.90;64.50;;;;;;5064708;28;44672;-76
2022/12/23 09:13:58;;;;;;;1.87;1.77;;;17.90;64.60;;;;;;5087518;28;43495;-73
2022/12/23 09:16:27;;;;;;;1.43;1.43;;;17.80;64.70;;;;;;5087932;28;43315;-77
2022/12/23 09:18:55;;;;;;;1.53;1.43;;;17.80;64.90;;;;;;5088043;28;43940;-74
2022/12/23 09:21:24;;;;;;;1.50;1.50;;;17.80;64.80;;;;;;5067369;27;43473;-76
2022/12/23 09:23:52;;;;;;;1.40;1.40;;;17.90;64.80;;;;;;5080696;27;43418;-76
2022/12/23 09:26:21;;;;;;;1.50;1.40;;;17.80;64.70;;;;;;5062406;28;43590;-75
2022/12/23 09:28:49;;;;;;;1.43;1.43;;;17.80;64.80;;;;;;5085327;27;44707;-76
2022/12/23 09:31:19;;;;;;;1.70;1.70;;;17.80;64.90;;;;;;5083468;27;43549;-77
2022/12/23 09:33:47;;;;;;;1.40;1.40;;;17.80;65.10;;;;;;5082616;27;43481;-76
2022/12/23 09:36:15;;;;;;;1.70;1.67;;;17.80;64.90;;;;;;5079960;27;43526;-77
2022/12/23 09:38:43;;;;;;;1.53;1.50;;;17.90;64.60;;;;;;5066470;27;45744;-77
2022/12/23 09:41:17;;;;;;;1.50;1.50;;;18.00;64.40;;;;;;5083833;27;43896;-76
2022/12/23 09:43:48;;;;;;;1.50;1.50;;;18.00;64.30;;;;;;5082354;27;43879;-77
2022/12/23 09:46:17;;;;;;;1.60;1.60;;;18.00;64.30;;;;;;5066792;27;44253;-75
2022/12/23 09:48:51;;;;;;;1.47;1.47;;;18.00;64.60;;;;;;5069808;28;46266;-76
2022/12/23 09:51:19;;;;;;;1.40;1.40;;;18.00;64.50;;;;;;5087998;28;43493;-76
2022/12/23 09:53:52;;;;;;;1.30;1.30;;;17.90;64.40;;;;;;5087357;27;43470;-75
2022/12/23 09:56:30;;;;;;;1.47;1.47;;;17.90;64.50;;;;;;5083072;27;43541;-77
2022/12/23 09:59:04;;;;;;;1.57;1.57;;;17.90;64.60;;;;;;5060057;27;45802;-76
2022/12/23 10:01:33;;;;;;;1.47;1.47;;;17.80;64.70;;;;;;5081122;27;44045;-74
2022/12/23 10:04:29;;;;;;;1.33;1.33;;;17.80;64.90;;;;;;5081496;27;43955;-77
2022/12/23 10:07:11;;;;;;;1.23;1.23;;;17.80;64.80;;;;;;5090001;27;43443;-76
2022/12/23 10:09:40;;;;;;;1.30;1.30;;;17.80;64.80;;;;;;5081240;27;44238;-77
2022/12/23 10:12:12;;;;;;;1.43;1.43;;;17.80;64.80;;;;;;5072685;27;43469;-73
2022/12/23 10:14:40;;;;;;;1.30;1.30;;;17.80;64.90;;;;;;5062553;28;44211;-77
2022/12/23 10:17:10;;;;;;;1.30;1.30;;;17.80;65.00;;;;;;5082358;27;43458;-76
2022/12/23 10:19:41;;;;;;;1.23;1.23;;;17.80;65.10;;;;;;5084181;27;44063;-76
2022/12/23 10:22:11;;;;;;;1.30;1.30;;;17.80;65.00;;;;;;5086244;27;43444;-76
2022/12/23 10:24:41;;;;;;;1.43;1.43;;;17.80;65.00;;;;;;5068926;28;43482;-76
2022/12/23 10:27:15;;;;;;;1.30;1.30;;;17.80;64.90;;;;;;5069307;28;43534;-77
2022/12/23 10:29:43;;;;;;;1.00;1.00;;;17.80;65.10;;;;;;5087090;27;43920;-75
2022/12/23 10:32:15;;;;;;;1.23;1.23;;;17.80;65.10;;;;;;5086935;27;43561;-76
2022/12/23 10:34:47;;;;;;;1.50;1.50;;;17.70;65.20;;;;;;5086693;27;43408;-75
2022/12/23 10:37:17;;;;;;;1.47;1.47;;;17.80;65.10;;;;;;5083586;27;44005;-75
2022/12/23 10:39:48;;;;;;;1.30;1.30;;;17.90;64.70;;;;;;5087142;27;43765;-77
2022/12/23 10:42:20;;;;;;;1.13;1.13;;;18.00;64.40;;;;;;5069766;27;44556;-74
2022/12/23 10:45:10;;;;;;;1.30;1.30;;;18.00;64.20;;;;;;5088297;27;43500;-77
2022/12/23 10:47:45;;;;;;;1.10;1.10;;;18.00;64.30;;;;;;5087200;28;43427;-76
2022/12/23 10:50:28;;;;;;;1.30;1.30;;;18.00;64.50;;;;;;5085652;27;43753;-76
2022/12/23 10:52:56;;;;;;;1.10;1.10;;;18.00;64.30;;;;;;5082506;27;43483;-76
2022/12/23 10:55:26;;;;;;;1.33;1.33;;;18.00;64.50;;;;;;5087686;28;43455;-74
2022/12/23 10:58:04;;;;;;;1.27;1.27;;;17.90;64.40;;;;;;5087403;28;43458;-77
2022/12/23 11:00:32;;;;;;;1.30;1.30;;;17.90;64.60;;;;;;5087324;28;44060;-76
2022/12/23 11:03:07;;;;;;;1.20;1.13;;;17.90;64.80;;;;;;5086981;27;43485;-77
2022/12/23 11:05:36;;;;;;;1.50;1.50;;;17.90;64.80;;;;;;5083811;28;44041;-75
2022/12/23 11:08:04;;;;;;;1.40;1.40;;;17.90;64.70;;;;;;5069015;28;43504;-77
2022/12/23 11:10:33;;;;;;;1.30;1.30;;;17.90;64.70;;;;;;5086850;28;43853;-78
2022/12/23 11:13:01;;;;;;;1.20;1.20;;;17.90;64.80;;;;;;5066690;28;44598;-77
2022/12/23 11:15:31;;;;;;;1.30;1.30;;;17.90;64.80;;;;;;5086088;28;43557;-76
2022/12/23 11:18:00;;;;;;;1.23;1.23;;;17.80;65.60;;;;;;5067753;28;43423;-75
2022/12/23 11:20:28;;;;;;;1.30;1.30;;;17.80;65.00;;;;;;5070242;28;46076;-76
2022/12/23 11:23:00;;;;;;;1.40;1.40;;;17.80;64.90;;;;;;5085306;28;43411;-75
2022/12/23 11:25:34;;;;;;;1.40;1.40;;;17.80;64.90;;;;;;5067482;28;43476;-76
2022/12/23 11:28:06;;;;;;;1.20;1.20;;;17.80;64.90;;;;;;5081559;27;44016;-75
2022/12/23 11:30:36;;;;;;;1.20;1.20;;;17.80;65.00;;;;;;5084019;27;44442;-76
2022/12/23 11:33:05;;;;;;;1.10;1.10;;;17.80;65.10;;;;;;5082566;28;43350;-76
2022/12/23 11:35:35;;;;;;;1.50;1.50;;;17.80;65.20;;;;;;5086534;28;43407;-76
2022/12/23 11:38:04;;;;;;;1.20;1.20;;;17.90;65.00;;;;;;5087134;28;43442;-77
2022/12/23 11:40:35;;;;;;;1.50;1.50;;;18.00;64.60;;;;;;5080872;28;43765;-76
2022/12/23 11:43:05;;;;;;;1.20;1.20;;;18.10;64.40;;;;;;5086592;28;43940;-76
2022/12/23 11:45:34;;;;;;;1.30;1.30;;;18.10;64.30;;;;;;5086898;28;43437;-77
2022/12/23 11:48:03;;;;;;;1.20;1.20;;;18.10;64.40;;;;;;5086929;28;43402;-76
2022/12/23 11:50:33;;;;;;;1.40;1.40;;;18.00;64.40;;;;;;5086721;28;43653;-76
2022/12/23 11:53:09;;;;;;;1.40;1.40;;;18.00;64.30;;;;;;5077731;28;43419;-77
2022/12/23 11:55:39;;;;;;;1.27;1.27;;;18.00;64.50;;;;;;5060719;28;43820;-76
2022/12/23 11:58:15;;;;;;;1.60;1.60;;;18.00;64.50;;;;;;5082913;27;43942;-76
2022/12/23 12:00:43;;;;;;;1.20;1.20;;;17.90;64.60;;;;;;5059073;27;46132;-76
2022/12/23 12:03:18;;;;;;;1.20;1.20;;;17.90;64.70;;;;;;5080481;28;43468;-76
2022/12/23 12:05:48;;;;;;;0.97;0.97;;;17.90;64.80;;;;;;5064903;28;43486;-77
2022/12/23 12:08:20;;;;;;;1.50;1.50;;;17.90;64.80;;;;;;5081467;28;43445;-76
2022/12/23 12:10:48;;;;;;;1.20;1.20;;;17.90;64.80;;;;;;5080563;28;43961;-77
2022/12/23 12:13:23;;;;;;;1.30;1.30;;;17.90;64.90;;;;;;5079819;28;43748;-76
2022/12/23 12:15:56;;;;;;;1.30;1.30;;;17.90;65.00;;;;;;5084105;28;44023;-76
2022/12/23 12:18:24;;;;;;;1.40;1.40;;;17.80;65.10;;;;;;5080126;28;43422;-76
2022/12/23 12:20:54;;;;;;;1.37;1.37;;;17.80;64.90;;;;;;5080699;28;43992;-75
2022/12/23 12:23:26;;;;;;;1.40;1.40;;;17.90;65.00;;;;;;5076710;28;43529;-77
2022/12/23 12:25:56;;;;;;;1.20;1.20;;;17.80;64.90;;;;;;5083266;27;43388;-75
2022/12/23 12:28:25;;;;;;;1.30;1.30;;;17.80;65.00;;;;;;5063536;28;43503;-76
2022/12/23 12:30:56;;;;;;;1.20;1.20;;;17.80;65.10;;;;;;5079399;28;43903;-77
2022/12/23 12:33:27;;;;;;;1.20;1.20;;;17.80;65.20;;;;;;5078827;28;43865;-76
2022/12/23 12:35:57;;;;;;;1.27;1.27;;;17.90;65.30;;;;;;5081520;28;43524;-75
2022/12/23 12:38:33;;;;;;;1.33;1.33;;;18.00;65.00;;;;;;5080936;28;43408;-75
2022/12/23 12:41:02;;;;;;;1.20;1.20;;;18.10;64.50;;;;;;5072671;28;45124;-75
2022/12/23 12:43:31;;;;;;;1.30;1.30;;;18.10;64.40;;;;;;5074186;28;43519;-77
2022/12/23 12:46:06;;;;;;;1.13;1.13;;;18.10;64.50;;;;;;5064935;28;44064;-77
2022/12/23 12:48:42;;;;;;;1.13;1.13;;;18.10;64.70;;;;;;5091179;27;43558;-77
2022/12/23 12:51:16;;;;;;;1.10;1.10;;;18.00;64.50;;;;;;5085507;28;43899;-77
2022/12/23 12:53:56;;;;;;;1.10;1.10;;;18.00;64.50;;;;;;5079282;28;43896;-75
2022/12/23 12:56:35;;;;;;;1.40;1.40;;;18.00;64.60;;;;;;5083591;28;43558;-76
2022/12/23 12:59:03;;;;;;;1.10;1.10;;;17.90;64.60;;;;;;5086149;28;44455;-76
2022/12/23 13:01:42;;;;;;;1.17;1.17;;;17.90;64.80;;;;;;5085387;28;43907;-77
2022/12/23 13:04:34;;;;;;;1.10;1.10;;;17.90;65.10;;;;;;5082259;28;44095;-77
2022/12/23 13:07:04;;;;;;;1.47;1.47;;;17.90;64.80;;;;;;5071481;28;43441;-77
2022/12/23 13:09:38;;;;;;;1.17;1.17;;;17.90;64.90;;;;;;5063918;28;43587;-75
2022/12/23 13:12:13;;;;;;;1.17;1.17;;;17.90;64.90;;;;;;5066721;28;45393;-74
2022/12/23 13:14:48;;;;;;;1.20;1.20;;;17.90;65.00;;;;;;5079519;28;43488;-76
2022/12/23 13:17:17;;;;;;;1.20;1.20;;;17.80;65.10;;;;;;5078363;28;43600;-76
2022/12/23 13:19:49;;;;;;;1.20;1.20;;;17.80;65.10;;;;;;5083269;28;43576;-76
2022/12/23 13:22:17;;;;;;;1.20;1.20;;;17.80;65.00;;;;;;5061426;28;45624;-76
2022/12/23 13:24:53;;;;;;;1.20;1.20;;;17.80;65.00;;;;;;5067198;28;45168;-77
2022/12/23 13:27:24;;;;;;;1.00;1.00;;;17.80;65.10;;;;;;5081673;28;43649;-76
2022/12/23 13:30:04;;;;;;;1.10;1.10;;;17.80;65.10;;;;;;5068445;28;43459;-77